sensor_id;sensor_type;location;lat;lon;timestamp;pressure;altitude;pressure_sealevel;temperature;humidity
58367;BME280;57745;42.524;12.052;2023-03-13T00:01:23;96619.44;;;16.24;48.16
58367;BME280;57745;42.524;12.052;2023-03-13T00:03:49;96606.97;;;16.32;48.68
58367;BME280;57745;42.524;12.052;2023-03-13T00:06:15;96607.06;;;16.46;48.12
58367;BME280;57745;42.524;12.052;2023-03-13T00:08:41;96605.66;;;16.60;48.00
58367;BME280;57745;42.524;12.052;2023-03-13T00:11:08;96595.81;;;16.44;47.78
58367;BME280;57745;42.524;12.052;2023-03-13T00:13:34;96592.00;;;16.51;48.38
58367;BME280;57745;42.524;12.052;2023-03-13T00:16:02;96599.59;;;16.56;48.24
58367;BME280;57745;42.524;12.052;2023-03-13T00:18:28;96601.78;;;16.43;48.55
58367;BME280;57745;42.524;12.052;2023-03-13T00:21:01;96608.75;;;16.53;48.19
58367;BME280;57745;42.524;12.052;2023-03-13T00:23:27;96605.72;;;16.33;49.03
58367;BME280;57745;42.524;12.052;2023-03-13T00:26:04;96609.53;;;16.35;48.40
58367;BME280;57745;42.524;12.052;2023-03-13T00:28:34;96614.25;;;16.35;48.81
58367;BME280;57745;42.524;12.052;2023-03-13T00:33:41;96609.13;;;16.09;48.81
58367;BME280;57745;42.524;12.052;2023-03-13T00:36:10;96606.38;;;16.09;48.69
58367;BME280;57745;42.524;12.052;2023-03-13T00:38:39;96601.22;;;16.11;48.95
58367;BME280;57745;42.524;12.052;2023-03-13T00:41:12;96603.16;;;16.29;48.60
58367;BME280;57745;42.524;12.052;2023-03-13T00:43:39;96612.03;;;16.06;49.33
58367;BME280;57745;42.524;12.052;2023-03-13T00:46:05;96607.31;;;16.06;48.91
58367;BME280;57745;42.524;12.052;2023-03-13T00:48:31;96607.31;;;15.97;48.88
58367;BME280;57745;42.524;12.052;2023-03-13T00:50:58;96606.69;;;16.11;48.54
58367;BME280;57745;42.524;12.052;2023-03-13T00:53:23;96614.31;;;15.98;48.81
58367;BME280;57745;42.524;12.052;2023-03-13T00:56:02;96603.34;;;15.98;48.79
58367;BME280;57745;42.524;12.052;2023-03-13T00:58:39;96601.53;;;15.95;48.75
58367;BME280;57745;42.524;12.052;2023-03-13T01:01:23;96611.84;;;16.19;48.22
58367;BME280;57745;42.524;12.052;2023-03-13T01:03:57;96617.94;;;16.13;48.41
58367;BME280;57745;42.524;12.052;2023-03-13T01:06:27;96628.59;;;15.93;48.86
58367;BME280;57745;42.524;12.052;2023-03-13T01:08:52;96629.19;;;15.97;48.40
58367;BME280;57745;42.524;12.052;2023-03-13T01:11:21;96630.41;;;15.96;48.70
58367;BME280;57745;42.524;12.052;2023-03-13T01:13:48;96632.69;;;15.89;48.35
58367;BME280;57745;42.524;12.052;2023-03-13T01:16:17;96634.81;;;15.85;48.61
58367;BME280;57745;42.524;12.052;2023-03-13T01:18:45;96630.56;;;15.93;48.30
58367;BME280;57745;42.524;12.052;2023-03-13T01:21:12;96645.00;;;15.66;49.17
58367;BME280;57745;42.524;12.052;2023-03-13T01:23:37;96635.00;;;15.81;48.73
58367;BME280;57745;42.524;12.052;2023-03-13T01:26:07;96638.00;;;15.83;48.90
58367;BME280;57745;42.524;12.052;2023-03-13T01:28:34;96628.59;;;15.93;48.69
58367;BME280;57745;42.524;12.052;2023-03-13T01:31:00;96628.91;;;16.04;48.98
58367;BME280;57745;42.524;12.052;2023-03-13T01:33:33;96634.06;;;15.93;49.03
58367;BME280;57745;42.524;12.052;2023-03-13T01:36:02;96636.50;;;15.91;48.79
58367;BME280;57745;42.524;12.052;2023-03-13T01:38:28;96633.75;;;15.91;48.95
58367;BME280;57745;42.524;12.052;2023-03-13T01:40:53;96637.72;;;15.81;49.39
58367;BME280;57745;42.524;12.052;2023-03-13T01:43:25;96641.66;;;15.98;48.96
58367;BME280;57745;42.524;12.052;2023-03-13T01:45:56;96651.69;;;16.01;48.83
58367;BME280;57745;42.524;12.052;2023-03-13T01:51:13;96643.78;;;15.85;49.34
58367;BME280;57745;42.524;12.052;2023-03-13T01:53:43;96644.84;;;16.15;48.89
58367;BME280;57745;42.524;12.052;2023-03-13T01:56:25;96633.91;;;16.06;48.93
58367;BME280;57745;42.524;12.052;2023-03-13T01:58:55;96630.72;;;15.98;49.02
58367;BME280;57745;42.524;12.052;2023-03-13T02:01:23;96632.22;;;15.99;49.01
58367;BME280;57745;42.524;12.052;2023-03-13T02:03:49;96636.50;;;15.91;49.46
58367;BME280;57745;42.524;12.052;2023-03-13T02:06:16;96637.69;;;15.99;49.75
58367;BME280;57745;42.524;12.052;2023-03-13T02:08:48;96637.41;;;16.06;49.58
58367;BME280;57745;42.524;12.052;2023-03-13T02:14:01;96642.09;;;15.97;50.14
58367;BME280;57745;42.524;12.052;2023-03-13T02:16:29;96637.72;;;15.90;50.75
58367;BME280;57745;42.524;12.052;2023-03-13T02:18:56;96633.75;;;16.00;50.46
58367;BME280;57745;42.524;12.052;2023-03-13T02:22:12;96631.63;;;16.04;50.93
58367;BME280;57745;42.524;12.052;2023-03-13T02:26:53;96631.94;;;16.06;51.33
58367;BME280;57745;42.524;12.052;2023-03-13T02:29:19;96631.31;;;16.02;51.57
58367;BME280;57745;42.524;12.052;2023-03-13T02:31:46;96629.66;;;15.87;52.59
58367;BME280;57745;42.524;12.052;2023-03-13T02:34:13;96636.78;;;15.84;53.11
58367;BME280;57745;42.524;12.052;2023-03-13T02:36:40;96636.50;;;15.82;53.16
58367;BME280;57745;42.524;12.052;2023-03-13T02:39:06;96639.84;;;15.77;53.32
58367;BME280;57745;42.524;12.052;2023-03-13T02:41:33;96634.69;;;15.79;53.58
58367;BME280;57745;42.524;12.052;2023-03-13T02:43:59;96646.66;;;15.72;53.68
58367;BME280;57745;42.524;12.052;2023-03-13T02:46:24;96648.19;;;15.73;53.98
58367;BME280;57745;42.524;12.052;2023-03-13T02:48:52;96645.63;;;15.79;53.75
58367;BME280;57745;42.524;12.052;2023-03-13T02:53:55;96641.59;;;15.53;54.74
58367;BME280;57745;42.524;12.052;2023-03-13T02:56:25;96644.81;;;15.60;54.18
58367;BME280;57745;42.524;12.052;2023-03-13T02:58:51;96648.50;;;15.66;54.26
58367;BME280;57745;42.524;12.052;2023-03-13T03:01:16;96648.63;;;15.63;54.36
58367;BME280;57745;42.524;12.052;2023-03-13T03:03:42;96654.81;;;15.54;54.69
58367;BME280;57745;42.524;12.052;2023-03-13T03:06:07;96651.09;;;15.79;53.90
58367;BME280;57745;42.524;12.052;2023-03-13T03:08:33;96654.72;;;15.76;54.18
58367;BME280;57745;42.524;12.052;2023-03-13T03:10:58;96647.84;;;15.53;54.71
58367;BME280;57745;42.524;12.052;2023-03-13T03:13:24;96648.63;;;15.63;54.39
58367;BME280;57745;42.524;12.052;2023-03-13T03:15:50;96648.50;;;15.85;53.55
58367;BME280;57745;42.524;12.052;2023-03-13T03:18:15;96658.00;;;15.53;54.34
58367;BME280;57745;42.524;12.052;2023-03-13T03:20:41;96656.78;;;15.44;54.18
58367;BME280;57745;42.524;12.052;2023-03-13T03:23:06;96660.78;;;15.71;53.34
58367;BME280;57745;42.524;12.052;2023-03-13T03:25:32;96663.06;;;15.63;53.01
58367;BME280;57745;42.524;12.052;2023-03-13T03:27:57;96673.69;;;15.61;52.12
58367;BME280;57745;42.524;12.052;2023-03-13T03:30:23;96676.13;;;15.68;51.51
58367;BME280;57745;42.524;12.052;2023-03-13T03:32:48;96678.03;;;15.50;52.16
58367;BME280;57745;42.524;12.052;2023-03-13T03:35:13;96676.09;;;15.59;51.80
58367;BME280;57745;42.524;12.052;2023-03-13T03:37:39;96677.41;;;15.45;52.33
58367;BME280;57745;42.524;12.052;2023-03-13T03:40:05;96686.00;;;15.66;52.14
58367;BME280;57745;42.524;12.052;2023-03-13T03:42:31;96688.97;;;15.50;52.29
58367;BME280;57745;42.524;12.052;2023-03-13T03:44:57;96688.06;;;15.53;52.03
58367;BME280;57745;42.524;12.052;2023-03-13T03:47:22;96685.09;;;15.69;52.17
58367;BME280;57745;42.524;12.052;2023-03-13T03:49:47;96685.94;;;15.48;52.74
58367;BME280;57745;42.524;12.052;2023-03-13T03:52:13;96689.06;;;15.77;51.67
58367;BME280;57745;42.524;12.052;2023-03-13T03:54:38;96685.47;;;15.40;52.54
58367;BME280;57745;42.524;12.052;2023-03-13T03:57:04;96682.53;;;15.34;52.92
58367;BME280;57745;42.524;12.052;2023-03-13T03:59:29;96679.53;;;15.41;52.67
58367;BME280;57745;42.524;12.052;2023-03-13T04:01:56;96690.47;;;15.32;53.16
58367;BME280;57745;42.524;12.052;2023-03-13T04:04:22;96680.34;;;15.11;53.93
58367;BME280;57745;42.524;12.052;2023-03-13T04:06:47;96690.34;;;15.45;53.26
58367;BME280;57745;42.524;12.052;2023-03-13T04:09:13;96680.47;;;15.48;53.46
58367;BME280;57745;42.524;12.052;2023-03-13T04:11:38;96686.00;;;15.66;52.80
58367;BME280;57745;42.524;12.052;2023-03-13T04:14:04;96676.69;;;15.45;53.21
58367;BME280;57745;42.524;12.052;2023-03-13T04:16:30;96676.69;;;15.45;52.66
58367;BME280;57745;42.524;12.052;2023-03-13T04:18:56;96678.34;;;15.42;52.47
58367;BME280;57745;42.524;12.052;2023-03-13T04:21:21;96686.88;;;15.54;52.46
58367;BME280;57745;42.524;12.052;2023-03-13T04:23:47;96678.66;;;15.44;53.05
58367;BME280;57745;42.524;12.052;2023-03-13T04:26:12;96679.00;;;15.65;52.55
58367;BME280;57745;42.524;12.052;2023-03-13T04:28:38;96665.66;;;15.67;52.19
58367;BME280;57745;42.524;12.052;2023-03-13T04:31:03;96670.13;;;15.42;52.87
58367;BME280;57745;42.524;12.052;2023-03-13T04:33:29;96674.34;;;15.34;52.79
58367;BME280;57745;42.524;12.052;2023-03-13T04:35:54;96678.94;;;15.46;52.67
58367;BME280;57745;42.524;12.052;2023-03-13T04:38:40;96674.66;;;15.36;52.82
58367;BME280;57745;42.524;12.052;2023-03-13T04:41:05;96672.78;;;15.64;52.27
58367;BME280;57745;42.524;12.052;2023-03-13T04:43:31;96675.00;;;15.48;52.58
58367;BME280;57745;42.524;12.052;2023-03-13T04:45:56;96678.91;;;15.37;53.18
58367;BME280;57745;42.524;12.052;2023-03-13T04:48:21;96684.38;;;15.28;53.39
58367;BME280;57745;42.524;12.052;2023-03-13T04:50:47;96673.47;;;15.37;53.17
58367;BME280;57745;42.524;12.052;2023-03-13T04:53:14;96678.00;;;15.31;53.49
58367;BME280;57745;42.524;12.052;2023-03-13T04:55:39;96687.41;;;15.30;53.56
58367;BME280;57745;42.524;12.052;2023-03-13T04:58:05;96689.84;;;15.28;54.15
58367;BME280;57745;42.524;12.052;2023-03-13T05:00:31;96689.59;;;15.54;53.36
58367;BME280;57745;42.524;12.052;2023-03-13T05:02:56;96685.31;;;15.43;53.60
58367;BME280;57745;42.524;12.052;2023-03-13T05:05:22;96686.66;;;15.39;53.91
58367;BME280;57745;42.524;12.052;2023-03-13T05:07:47;96676.19;;;15.46;53.84
58367;BME280;57745;42.524;12.052;2023-03-13T05:10:13;96678.16;;;15.37;54.22
58367;BME280;57745;42.524;12.052;2023-03-13T05:12:38;96682.25;;;15.32;54.40
58367;BME280;57745;42.524;12.052;2023-03-13T05:15:04;96687.44;;;15.39;54.19
58367;BME280;57745;42.524;12.052;2023-03-13T05:17:29;96696.25;;;15.43;54.44
58367;BME280;57745;42.524;12.052;2023-03-13T05:19:55;96696.19;;;15.25;54.79
58367;BME280;57745;42.524;12.052;2023-03-13T05:22:20;96697.28;;;15.37;54.28
58367;BME280;57745;42.524;12.052;2023-03-13T05:24:46;96704.41;;;15.34;54.52
58367;BME280;57745;42.524;12.052;2023-03-13T05:27:11;96712.66;;;15.43;54.48
58367;BME280;57745;42.524;12.052;2023-03-13T05:29:36;96707.13;;;15.25;55.53
58367;BME280;57745;42.524;12.052;2023-03-13T05:32:02;96712.91;;;15.27;55.23
58367;BME280;57745;42.524;12.052;2023-03-13T05:34:27;96717.16;;;15.28;55.20
58367;BME280;57745;42.524;12.052;2023-03-13T05:36:53;96719.69;;;15.14;55.45
58367;BME280;57745;42.524;12.052;2023-03-13T05:39:18;96723.25;;;15.32;55.07
58367;BME280;57745;42.524;12.052;2023-03-13T05:41:43;96727.84;;;15.44;54.76
58367;BME280;57745;42.524;12.052;2023-03-13T05:44:09;96734.03;;;15.36;55.10
58367;BME280;57745;42.524;12.052;2023-03-13T05:46:35;96731.38;;;15.14;55.15
58367;BME280;57745;42.524;12.052;2023-03-13T05:49:00;96729.25;;;15.18;55.04
58367;BME280;57745;42.524;12.052;2023-03-13T05:51:26;96725.81;;;15.36;54.45
58367;BME280;57745;42.524;12.052;2023-03-13T05:53:51;96727.44;;;15.24;54.08
58367;BME280;57745;42.524;12.052;2023-03-13T05:56:16;96726.25;;;15.25;54.10
58367;BME280;57745;42.524;12.052;2023-03-13T05:58:42;96720.63;;;15.20;53.83
58367;BME280;57745;42.524;12.052;2023-03-13T06:01:10;96727.72;;;15.08;54.31
58367;BME280;57745;42.524;12.052;2023-03-13T06:03:46;96722.31;;;15.26;53.44
58367;BME280;57745;42.524;12.052;2023-03-13T06:06:11;96729.25;;;15.18;53.76
58367;BME280;57745;42.524;12.052;2023-03-13T06:08:37;96729.16;;;15.00;54.68
58367;BME280;57745;42.524;12.052;2023-03-13T06:11:04;96733.63;;;15.06;54.38
58367;BME280;57745;42.524;12.052;2023-03-13T06:13:29;96730.50;;;15.26;53.81
58367;BME280;57745;42.524;12.052;2023-03-13T06:15:56;96730.09;;;15.46;53.34
58367;BME280;57745;42.524;12.052;2023-03-13T06:18:22;96717.38;;;15.52;53.02
58367;BME280;57745;42.524;12.052;2023-03-13T06:20:49;96718.69;;;15.29;54.09
58367;BME280;57745;42.524;12.052;2023-03-13T06:23:15;96722.19;;;15.39;53.71
58367;BME280;57745;42.524;12.052;2023-03-13T06:25:41;96722.19;;;15.39;53.59
58367;BME280;57745;42.524;12.052;2023-03-13T06:28:19;96726.59;;;15.36;53.91
58367;BME280;57745;42.524;12.052;2023-03-13T06:30:45;96721.31;;;15.42;53.60
58367;BME280;57745;42.524;12.052;2023-03-13T06:33:11;96724.28;;;15.66;53.33
58367;BME280;57745;42.524;12.052;2023-03-13T06:38:18;96730.66;;;15.72;53.19
58367;BME280;57745;42.524;12.052;2023-03-13T06:40:44;96730.22;;;15.33;54.26
58367;BME280;57745;42.524;12.052;2023-03-13T06:43:09;96731.59;;;15.38;54.10
58367;BME280;57745;42.524;12.052;2023-03-13T06:45:35;96731.53;;;15.60;53.79
58367;BME280;57745;42.524;12.052;2023-03-13T06:48:01;96727.00;;;15.57;53.89
58367;BME280;57745;42.524;12.052;2023-03-13T06:50:27;96731.28;;;15.67;53.59
58367;BME280;57745;42.524;12.052;2023-03-13T06:52:52;96731.28;;;15.67;53.62
58367;BME280;57745;42.524;12.052;2023-03-13T06:55:18;96746.81;;;15.88;53.05
58367;BME280;57745;42.524;12.052;2023-03-13T06:57:48;96746.03;;;15.88;53.32
58367;BME280;57745;42.524;12.052;2023-03-13T07:00:14;96758.75;;;15.63;53.94
58367;BME280;57745;42.524;12.052;2023-03-13T07:02:39;96748.00;;;15.69;54.36
58367;BME280;57745;42.524;12.052;2023-03-13T07:05:05;96745.91;;;15.82;53.27
58367;BME280;57745;42.524;12.052;2023-03-13T07:07:32;96757.75;;;15.88;53.04
58367;BME280;57745;42.524;12.052;2023-03-13T07:09:58;96758.50;;;15.98;52.89
58367;BME280;57745;42.524;12.052;2023-03-13T07:12:23;96767.50;;;16.07;52.65
58367;BME280;57745;42.524;12.052;2023-03-13T07:14:49;96763.84;;;16.10;52.38
58367;BME280;57745;42.524;12.052;2023-03-13T07:17:14;96766.72;;;15.98;52.35
58367;BME280;57745;42.524;12.052;2023-03-13T07:19:39;96763.53;;;15.99;52.21
58367;BME280;57745;42.524;12.052;2023-03-13T07:22:05;96763.72;;;16.05;52.05
58367;BME280;57745;42.524;12.052;2023-03-13T07:24:30;96769.31;;;16.10;52.42
58367;BME280;57745;42.524;12.052;2023-03-13T07:26:56;96776.94;;;16.15;52.36
58367;BME280;57745;42.524;12.052;2023-03-13T07:29:21;96787.84;;;15.88;52.68
58367;BME280;57745;42.524;12.052;2023-03-13T07:31:47;96786.31;;;15.96;52.84
58367;BME280;57745;42.524;12.052;2023-03-13T07:34:13;96787.56;;;16.04;52.78
58367;BME280;57745;42.524;12.052;2023-03-13T07:36:38;96788.91;;;16.00;53.15
58367;BME280;57745;42.524;12.052;2023-03-13T07:39:05;96782.69;;;16.08;53.09
58367;BME280;57745;42.524;12.052;2023-03-13T07:41:38;96784.97;;;16.10;53.27
58367;BME280;57745;42.524;12.052;2023-03-13T07:44:04;96796.38;;;16.08;53.93
58367;BME280;57745;42.524;12.052;2023-03-13T07:46:29;96793.38;;;16.15;53.85
58367;BME280;57745;42.524;12.052;2023-03-13T07:48:55;96809.91;;;16.12;54.16
58367;BME280;57745;42.524;12.052;2023-03-13T07:51:22;96805.19;;;16.03;54.26
58367;BME280;57745;42.524;12.052;2023-03-13T07:53:49;96799.72;;;16.12;54.18
58367;BME280;57745;42.524;12.052;2023-03-13T07:56:17;96798.34;;;16.08;54.00
58367;BME280;57745;42.524;12.052;2023-03-13T07:58:43;96805.66;;;16.11;53.89
58367;BME280;57745;42.524;12.052;2023-03-13T08:01:17;96801.69;;;16.03;54.15
58367;BME280;57745;42.524;12.052;2023-03-13T08:03:43;96810.34;;;16.01;54.09
58367;BME280;57745;42.524;12.052;2023-03-13T08:06:12;96794.84;;;16.07;53.71
58367;BME280;57745;42.524;12.052;2023-03-13T08:08:38;96801.72;;;16.21;53.53
58367;BME280;57745;42.524;12.052;2023-03-13T08:11:06;96800.75;;;15.88;54.73
58367;BME280;57745;42.524;12.052;2023-03-13T08:13:32;96819.97;;;16.15;54.16
58367;BME280;57745;42.524;12.052;2023-03-13T08:16:12;96812.81;;;16.17;54.07
58367;BME280;57745;42.524;12.052;2023-03-13T08:18:40;96825.13;;;16.22;53.70
58367;BME280;57745;42.524;12.052;2023-03-13T08:21:09;96816.47;;;16.24;53.92
58367;BME280;57745;42.524;12.052;2023-03-13T08:23:35;96811.63;;;16.28;53.69
58367;BME280;57745;42.524;12.052;2023-03-13T08:26:08;96818.75;;;16.25;53.98
58367;BME280;57745;42.524;12.052;2023-03-13T08:28:35;96818.88;;;16.03;54.45
58367;BME280;57745;42.524;12.052;2023-03-13T08:33:37;96843.66;;;16.09;54.67
58367;BME280;57745;42.524;12.052;2023-03-13T08:38:38;96840.53;;;16.56;53.51
58367;BME280;57745;42.524;12.052;2023-03-13T08:41:07;96845.41;;;16.52;54.14
58367;BME280;57745;42.524;12.052;2023-03-13T08:43:33;96851.38;;;16.69;53.78
58367;BME280;57745;42.524;12.052;2023-03-13T08:45:59;96847.38;;;16.61;53.78
58367;BME280;57745;42.524;12.052;2023-03-13T08:48:24;96852.84;;;16.51;54.46
58367;BME280;57745;42.524;12.052;2023-03-13T08:53:31;96857.91;;;16.62;54.32
58367;BME280;57745;42.524;12.052;2023-03-13T08:55:57;96853.06;;;16.66;54.57
58367;BME280;57745;42.524;12.052;2023-03-13T08:58:23;96861.78;;;16.34;56.08
58367;BME280;57745;42.524;12.052;2023-03-13T09:00:49;96857.41;;;16.45;55.86
58367;BME280;57745;42.524;12.052;2023-03-13T09:03:14;96858.53;;;16.66;55.29
58367;BME280;57745;42.524;12.052;2023-03-13T09:05:40;96855.47;;;16.64;55.55
58367;BME280;57745;42.524;12.052;2023-03-13T09:08:05;96853.00;;;16.57;55.89
58367;BME280;57745;42.524;12.052;2023-03-13T09:10:34;96861.25;;;16.75;55.60
58367;BME280;57745;42.524;12.052;2023-03-13T09:15:56;96845.44;;;16.70;56.22
58367;BME280;57745;42.524;12.052;2023-03-13T09:18:22;96851.94;;;16.55;58.10
58367;BME280;57745;42.524;12.052;2023-03-13T09:20:47;96865.22;;;16.74;57.17
58367;BME280;57745;42.524;12.052;2023-03-13T09:23:13;96861.97;;;16.58;58.34
58367;BME280;57745;42.524;12.052;2023-03-13T09:25:38;96858.84;;;16.68;58.02
58367;BME280;57745;42.524;12.052;2023-03-13T09:28:04;96845.16;;;16.68;58.17
58367;BME280;57745;42.524;12.052;2023-03-13T09:30:29;96845.16;;;16.68;58.45
58367;BME280;57745;42.524;12.052;2023-03-13T09:32:55;96856.09;;;16.68;58.94
58367;BME280;57745;42.524;12.052;2023-03-13T09:35:20;96851.22;;;16.72;58.50
58367;BME280;57745;42.524;12.052;2023-03-13T09:37:45;96851.06;;;16.76;58.44
58367;BME280;57745;42.524;12.052;2023-03-13T09:40:16;96851.97;;;16.73;58.76
58367;BME280;57745;42.524;12.052;2023-03-13T09:42:52;96857.16;;;16.80;59.06
58367;BME280;57745;42.524;12.052;2023-03-13T09:45:42;96848.47;;;16.91;58.53
58367;BME280;57745;42.524;12.052;2023-03-13T09:48:21;96855.19;;;16.90;58.80
58367;BME280;57745;42.524;12.052;2023-03-13T09:51:00;96850.00;;;16.92;58.86
58367;BME280;57745;42.524;12.052;2023-03-13T09:53:41;96844.50;;;16.82;59.07
58367;BME280;57745;42.524;12.052;2023-03-13T09:56:19;96852.75;;;16.92;59.07
58367;BME280;57745;42.524;12.052;2023-03-13T09:58:56;96856.09;;;16.86;59.21
58367;BME280;57745;42.524;12.052;2023-03-13T10:01:28;96852.44;;;16.90;59.09
58367;BME280;57745;42.524;12.052;2023-03-13T10:06:54;96856.38;;;16.98;58.47
58367;BME280;57745;42.524;12.052;2023-03-13T10:09:25;96851.81;;;16.95;58.62
58367;BME280;57745;42.524;12.052;2023-03-13T10:12:03;96848.47;;;17.00;58.17
58367;BME280;57745;42.524;12.052;2023-03-13T10:14:40;96850.91;;;16.98;58.29
58367;BME280;57745;42.524;12.052;2023-03-13T10:19:41;96844.19;;;17.08;57.71
58367;BME280;57745;42.524;12.052;2023-03-13T10:22:14;96843.28;;;17.11;57.64
58367;BME280;57745;42.524;12.052;2023-03-13T10:27:21;96840.38;;;17.14;57.85
58367;BME280;57745;42.524;12.052;2023-03-13T10:29:46;96830.47;;;17.08;57.65
58367;BME280;57745;42.524;12.052;2023-03-13T10:32:14;96831.84;;;17.12;57.17
58367;BME280;57745;42.524;12.052;2023-03-13T10:34:59;96829.69;;;17.26;56.73
58367;BME280;57745;42.524;12.052;2023-03-13T10:37:28;96833.50;;;17.19;57.22
58367;BME280;57745;42.524;12.052;2023-03-13T10:39:54;96842.38;;;17.14;57.23
58367;BME280;57745;42.524;12.052;2023-03-13T10:42:41;96836.41;;;17.24;56.76
58367;BME280;57745;42.524;12.052;2023-03-13T10:45:15;96836.25;;;17.28;56.87
58367;BME280;57745;42.524;12.052;2023-03-13T10:47:41;96835.97;;;17.17;57.34
58367;BME280;57745;42.524;12.052;2023-03-13T10:50:07;96840.50;;;17.20;56.69
58367;BME280;57745;42.524;12.052;2023-03-13T10:52:44;96836.41;;;17.24;56.22
58367;BME280;57745;42.524;12.052;2023-03-13T10:55:13;96845.53;;;17.21;55.87
58367;BME280;57745;42.524;12.052;2023-03-13T10:57:42;96837.16;;;17.25;55.11
58367;BME280;57745;42.524;12.052;2023-03-13T11:00:42;96842.03;;;17.30;54.56
58367;BME280;57745;42.524;12.052;2023-03-13T11:03:30;96851.28;;;17.33;54.26
58367;BME280;57745;42.524;12.052;2023-03-13T11:06:00;96844.47;;;17.28;54.35
58367;BME280;57745;42.524;12.052;2023-03-13T11:08:28;96835.94;;;17.26;53.84
58367;BME280;57745;42.524;12.052;2023-03-13T11:11:00;96829.22;;;17.36;53.84
58367;BME280;57745;42.524;12.052;2023-03-13T11:13:38;96826.94;;;17.35;53.65
58367;BME280;57745;42.524;12.052;2023-03-13T11:16:20;96824.53;;;17.28;54.28
58367;BME280;57745;42.524;12.052;2023-03-13T11:25:15;96826.00;;;17.38;55.45
58367;BME280;57745;42.524;12.052;2023-03-13T11:27:39;96830.28;;;17.39;55.94
58367;BME280;57745;42.524;12.052;2023-03-13T11:33:57;96829.22;;;17.36;56.38
58367;BME280;57745;42.524;12.052;2023-03-13T11:36:40;96823.72;;;17.36;56.30
58367;BME280;57745;42.524;12.052;2023-03-13T11:39:52;96829.50;;;17.38;56.76
58367;BME280;57745;42.524;12.052;2023-03-13T11:42:03;96823.41;;;17.34;57.01
58367;BME280;57745;42.524;12.052;2023-03-13T11:52:53;96796.41;;;17.51;57.08
58367;BME280;57745;42.524;12.052;2023-03-13T12:01:24;96787.16;;;17.39;55.63
58367;BME280;57745;42.524;12.052;2023-03-13T12:06:29;96784.13;;;17.37;54.54
58367;BME280;57745;42.524;12.052;2023-03-13T12:09:01;96767.69;;;17.37;54.19
58367;BME280;57745;42.524;12.052;2023-03-13T12:12:11;96763.84;;;17.44;53.88
58367;BME280;57745;42.524;12.052;2023-03-13T12:14:21;96758.66;;;17.46;53.44
58367;BME280;57745;42.524;12.052;2023-03-13T12:16:56;96762.97;;;17.38;53.34
58367;BME280;57745;42.524;12.052;2023-03-13T12:19:35;96761.84;;;17.44;53.54
58367;BME280;57745;42.524;12.052;2023-03-13T12:22:14;96750.13;;;17.44;53.07
58367;BME280;57745;42.524;12.052;2023-03-13T12:24:58;96760.72;;;17.27;53.35
58367;BME280;57745;42.524;12.052;2023-03-13T12:27:56;96759.88;;;17.45;52.86
58367;BME280;57745;42.524;12.052;2023-03-13T12:33:03;96744.81;;;17.40;52.23
58367;BME280;57745;42.524;12.052;2023-03-13T12:35:36;96748.84;;;17.30;52.29
58367;BME280;57745;42.524;12.052;2023-03-13T12:38:13;96734.94;;;17.34;51.08
58367;BME280;57745;42.524;12.052;2023-03-13T12:43:38;96742.59;;;17.30;51.25
58367;BME280;57745;42.524;12.052;2023-03-13T12:46:14;96734.78;;;17.37;51.04
58367;BME280;57745;42.524;12.052;2023-03-13T13:00:13;96723.66;;;17.41;51.48
58367;BME280;57745;42.524;12.052;2023-03-13T13:02:39;96714.00;;;17.45;51.15
58367;BME280;57745;42.524;12.052;2023-03-13T13:05:05;96714.97;;;17.42;51.21
58367;BME280;57745;42.524;12.052;2023-03-13T13:07:34;96702.94;;;17.40;52.18
58367;BME280;57745;42.524;12.052;2023-03-13T13:12:37;96711.31;;;17.36;51.45
58367;BME280;57745;42.524;12.052;2023-03-13T13:15:24;96709.81;;;17.35;51.31
58367;BME280;57745;42.524;12.052;2023-03-13T13:20:41;96712.78;;;17.46;51.43
58367;BME280;57745;42.524;12.052;2023-03-13T13:25:47;96710.50;;;17.45;51.53
58367;BME280;57745;42.524;12.052;2023-03-13T13:30:48;96704.16;;;17.39;52.17
58367;BME280;57745;42.524;12.052;2023-03-13T13:35:44;96703.25;;;17.42;51.76
58367;BME280;57745;42.524;12.052;2023-03-13T13:43:24;96713.16;;;17.39;52.26
58367;BME280;57745;42.524;12.052;2023-03-13T13:46:02;96708.28;;;17.34;51.98
58367;BME280;57745;42.524;12.052;2023-03-13T13:48:38;96701.97;;;17.52;51.59
58367;BME280;57745;42.524;12.052;2023-03-13T13:54:00;96692.31;;;17.56;50.73
58367;BME280;57745;42.524;12.052;2023-03-13T14:01:46;96686.78;;;17.42;50.53
58367;BME280;57745;42.524;12.052;2023-03-13T14:04:15;96692.50;;;17.53;50.20
58367;BME280;57745;42.524;12.052;2023-03-13T14:06:47;96687.44;;;17.60;49.78
58367;BME280;57745;42.524;12.052;2023-03-13T14:12:32;96685.34;;;17.55;50.20
58367;BME280;57745;42.524;12.052;2023-03-13T14:17:50;96672.94;;;17.36;50.82
58367;BME280;57745;42.524;12.052;2023-03-13T14:23:05;96671.28;;;17.63;49.82
58367;BME280;57745;42.524;12.052;2023-03-13T14:25:48;96674.47;;;17.37;50.86
58367;BME280;57745;42.524;12.052;2023-03-13T14:30:48;96672.31;;;17.41;50.37
58367;BME280;57745;42.524;12.052;2023-03-13T14:33:15;96662.69;;;17.46;50.14
58367;BME280;57745;42.524;12.052;2023-03-13T14:35:41;96653.22;;;17.47;50.90
58367;BME280;57745;42.524;12.052;2023-03-13T14:38:15;96649.69;;;17.55;50.23
58367;BME280;57745;42.524;12.052;2023-03-13T14:40:42;96640.75;;;17.46;50.73
58367;BME280;57745;42.524;12.052;2023-03-13T14:45:49;96630.22;;;17.53;50.59
58367;BME280;57745;42.524;12.052;2023-03-13T14:48:20;96625.75;;;17.56;50.67
58367;BME280;57745;42.524;12.052;2023-03-13T14:50:49;96636.91;;;17.52;50.78
58367;BME280;57745;42.524;12.052;2023-03-13T14:53:18;96642.56;;;17.49;50.97
58367;BME280;57745;42.524;12.052;2023-03-13T14:55:44;96646.75;;;17.59;50.55
58367;BME280;57745;42.524;12.052;2023-03-13T14:58:29;96634.34;;;17.73;50.09